createdAt,value
2017-09-25T00:00:46.938Z,13.20
2017-09-25T00:01:46.900Z,13.31
2017-09-25T00:02:46.873Z,13.28
2017-09-25T00:03:46.849Z,13.23
2017-09-25T00:04:46.873Z,13.27
2017-09-25T00:05:46.837Z,13.28
2017-09-25T00:06:46.810Z,13.38
2017-09-25T00:07:46.808Z,13.39
2017-09-25T00:08:46.765Z,13.31
2017-09-25T00:09:46.778Z,13.35
2017-09-25T00:10:46.725Z,13.35
2017-09-25T00:11:46.728Z,13.25
2017-09-25T00:12:46.692Z,13.35
2017-09-25T00:13:46.714Z,13.37
2017-09-25T00:14:46.657Z,13.37
2017-09-25T00:15:46.655Z,13.35
2017-09-25T00:16:46.624Z,13.31
2017-09-25T00:17:46.633Z,13.42
2017-09-25T00:18:46.619Z,13.38
2017-09-25T00:19:46.581Z,13.39
2017-09-25T00:20:46.562Z,13.37
2017-09-25T00:21:46.555Z,13.42
2017-09-25T00:22:46.512Z,13.38
2017-09-25T00:23:46.501Z,13.42
2017-09-25T00:24:46.493Z,13.44
2017-09-25T00:25:46.470Z,13.44
2017-09-25T00:26:46.467Z,13.46
2017-09-25T00:27:46.457Z,13.52
2017-09-25T00:28:46.413Z,13.52
2017-09-25T00:29:46.419Z,13.39
2017-09-25T00:30:46.385Z,13.44
2017-09-25T00:31:46.398Z,13.39
2017-09-25T00:32:46.368Z,13.52
2017-09-25T00:33:46.327Z,13.42
2017-09-25T00:34:46.332Z,13.50
2017-09-25T00:35:46.304Z,13.46
2017-09-25T00:36:46.286Z,13.41
2017-09-25T00:37:46.276Z,13.52
2017-09-25T00:38:46.240Z,13.52
2017-09-25T00:39:46.223Z,13.50
2017-09-25T00:40:46.208Z,13.46
2017-09-25T00:41:46.195Z,13.50
2017-09-25T00:42:46.205Z,13.53
2017-09-25T00:43:46.148Z,13.47
2017-09-25T00:44:46.131Z,13.49
2017-09-25T00:45:46.113Z,13.42
2017-09-25T00:46:46.112Z,13.44
2017-09-25T00:47:46.113Z,13.46
2017-09-25T00:48:46.069Z,13.50
2017-09-25T00:49:46.046Z,13.47
2017-09-25T00:50:46.029Z,13.49
2017-09-25T00:51:46.022Z,13.42
2017-09-25T00:52:46.004Z,13.46
2017-09-25T00:53:45.992Z,13.47
2017-09-25T00:54:45.959Z,13.56
2017-09-25T00:55:45.976Z,13.41
2017-09-25T00:56:45.922Z,13.39
2017-09-25T00:57:45.900Z,13.42
2017-09-25T00:58:45.903Z,13.41
2017-09-25T00:59:45.886Z,13.46
2017-09-25T01:00:45.855Z,13.39
2017-09-25T01:01:45.859Z,13.35
2017-09-25T01:02:45.828Z,13.37
2017-09-25T01:03:45.808Z,13.44
2017-09-25T01:04:45.806Z,13.46
2017-09-25T01:05:45.772Z,13.39
2017-09-25T01:06:45.774Z,13.52
2017-09-25T01:07:45.775Z,13.37
2017-09-25T01:08:45.720Z,13.38
2017-09-25T01:09:45.694Z,13.46
2017-09-25T01:10:45.680Z,13.42
2017-09-25T01:11:45.690Z,13.37
2017-09-25T01:12:45.672Z,13.39
2017-09-25T01:13:45.642Z,13.47
2017-09-25T01:14:45.616Z,13.44
2017-09-25T01:15:45.592Z,13.38
2017-09-25T01:16:45.594Z,13.38
2017-09-25T01:17:45.557Z,13.44
2017-09-25T01:18:45.536Z,13.39
2017-09-25T01:19:45.525Z,13.37
2017-09-25T01:20:45.507Z,13.42
2017-09-25T01:21:45.500Z,13.44
2017-09-25T01:22:45.473Z,13.44
2017-09-25T01:23:45.475Z,13.46
2017-09-25T01:24:45.458Z,13.39
2017-09-25T01:25:45.435Z,13.46
2017-09-25T01:26:45.394Z,13.41
2017-09-25T01:27:45.397Z,13.38
2017-09-25T01:28:45.382Z,13.41
2017-09-25T01:29:45.353Z,13.52
2017-09-25T01:30:45.327Z,13.37
2017-09-25T01:31:45.329Z,13.41
2017-09-25T01:32:45.287Z,13.35
2017-09-25T01:33:45.281Z,13.41
2017-09-25T01:34:45.266Z,13.50
2017-09-25T01:35:45.241Z,13.39
2017-09-25T01:36:45.225Z,13.41
2017-09-25T01:37:45.208Z,13.38
2017-09-25T01:38:45.194Z,13.44
2017-09-25T01:39:45.180Z,13.53
2017-09-25T01:40:45.166Z,13.52
2017-09-25T01:41:45.139Z,13.41
2017-09-25T01:42:45.118Z,13.41
2017-09-25T01:43:45.103Z,13.49
2017-09-25T01:44:45.097Z,13.46
2017-09-25T01:45:45.086Z,13.44
2017-09-25T01:46:45.067Z,13.63
2017-09-25T01:47:45.030Z,13.50
2017-09-25T01:48:45.043Z,13.53
2017-09-25T01:49:45.010Z,13.56
2017-09-25T01:50:44.983Z,13.59
2017-09-25T01:51:44.953Z,13.59
2017-09-25T01:52:44.956Z,13.62
2017-09-25T01:53:44.930Z,13.60
2017-09-25T01:54:44.913Z,13.60
2017-09-25T01:55:44.884Z,13.54
2017-09-25T01:56:44.878Z,13.56
2017-09-25T01:57:44.855Z,13.53
2017-09-25T01:58:44.842Z,13.60
2017-09-25T01:59:44.831Z,13.67
2017-09-25T02:00:44.811Z,13.65
2017-09-25T02:01:44.850Z,13.57
2017-09-25T02:02:44.805Z,13.63
2017-09-25T02:03:44.786Z,13.59
2017-09-25T02:04:44.737Z,13.63
2017-09-25T02:05:44.722Z,13.63
2017-09-25T02:06:44.706Z,13.63
2017-09-25T02:07:44.687Z,13.62
2017-09-25T02:08:44.709Z,13.68
2017-09-25T02:09:44.679Z,13.62
2017-09-25T02:10:44.637Z,13.68
2017-09-25T02:11:44.612Z,13.62
2017-09-25T02:12:44.594Z,13.67
2017-09-25T02:13:44.593Z,13.68
2017-09-25T02:14:44.587Z,13.68
2017-09-25T02:15:44.568Z,13.75
2017-09-25T02:16:44.551Z,13.71
2017-09-25T02:17:44.506Z,13.67
2017-09-25T02:18:44.489Z,13.67
2017-09-25T02:19:44.482Z,13.68
2017-09-25T02:20:44.521Z,13.68
2017-09-25T02:21:44.437Z,13.72
2017-09-25T02:22:44.437Z,13.81
2017-09-25T02:23:44.415Z,13.67
2017-09-25T02:24:44.385Z,13.59
2017-09-25T02:25:44.370Z,13.68
2017-09-25T02:26:44.372Z,13.71
2017-09-25T02:27:44.375Z,13.70
2017-09-25T02:28:44.317Z,13.74
2017-09-25T02:29:44.371Z,13.63
2017-09-25T02:30:44.308Z,13.65
2017-09-25T02:31:44.263Z,13.67
2017-09-25T02:32:44.249Z,13.63
2017-09-25T02:33:44.253Z,13.77
2017-09-25T02:34:44.216Z,13.60
2017-09-25T02:35:44.212Z,13.60
2017-09-25T02:36:44.189Z,13.60
2017-09-25T02:37:44.204Z,13.63
2017-09-25T02:38:44.146Z,13.70
2017-09-25T02:39:44.138Z,13.63
2017-09-25T02:40:44.129Z,13.63
2017-09-25T02:41:44.094Z,13.60
2017-09-25T02:42:44.072Z,13.65
2017-09-25T02:43:44.090Z,13.63
2017-09-25T02:44:44.074Z,13.65
2017-09-25T02:45:44.025Z,13.60
2017-09-25T02:46:44.017Z,13.67
2017-09-25T02:47:44.030Z,13.65
2017-09-25T02:48:43.977Z,13.63
2017-09-25T02:49:43.977Z,13.62
2017-09-25T02:50:43.934Z,13.62
2017-09-25T02:51:43.923Z,13.71
2017-09-25T02:52:43.901Z,13.67
2017-09-25T02:53:43.901Z,13.59
2017-09-25T02:54:43.883Z,13.54
2017-09-25T02:55:43.856Z,13.62
2017-09-25T02:56:43.828Z,13.59
2017-09-25T02:57:43.809Z,13.56
2017-09-25T02:58:43.799Z,13.56
2017-09-25T02:59:43.772Z,13.63
2017-09-25T03:00:43.761Z,13.59
2017-09-25T03:01:43.739Z,13.62
2017-09-25T03:02:43.736Z,13.54
2017-09-25T03:03:43.704Z,13.57
2017-09-25T03:04:43.722Z,13.57
2017-09-25T03:05:43.680Z,13.46
2017-09-25T03:06:43.661Z,13.57
2017-09-25T03:07:43.631Z,13.59
2017-09-25T03:08:43.658Z,13.59
2017-09-25T03:09:43.609Z,13.50
2017-09-25T03:10:43.583Z,13.53
2017-09-25T03:11:43.572Z,13.53
2017-09-25T03:12:43.573Z,13.57
2017-09-25T03:13:43.536Z,13.49
2017-09-25T03:14:43.553Z,13.47
2017-09-25T03:15:43.494Z,13.46
2017-09-25T03:16:43.490Z,13.57
2017-09-25T03:17:43.472Z,13.62
2017-09-25T03:18:43.456Z,13.54
2017-09-25T03:19:43.431Z,13.63
2017-09-25T03:20:43.427Z,13.60
2017-09-25T03:21:43.408Z,13.53
2017-09-25T03:22:43.420Z,13.59
2017-09-25T03:23:43.395Z,13.52
2017-09-25T03:24:43.357Z,13.49
2017-09-25T03:25:43.345Z,13.49
2017-09-25T03:26:43.329Z,13.52
2017-09-25T03:27:43.290Z,13.49
2017-09-25T03:28:43.269Z,13.49
2017-09-25T03:29:43.282Z,13.46
2017-09-25T03:30:43.251Z,13.46
2017-09-25T03:31:43.224Z,13.52
2017-09-25T03:32:43.570Z,13.49
2017-09-25T03:33:43.211Z,13.46
2017-09-25T03:34:43.164Z,13.39
2017-09-25T03:35:43.160Z,13.44
2017-09-25T03:36:43.167Z,13.44
2017-09-25T03:37:43.136Z,13.46
2017-09-25T03:38:43.109Z,13.42
2017-09-25T03:39:43.076Z,13.27
2017-09-25T03:40:43.102Z,13.39
2017-09-25T03:41:43.052Z,13.27
2017-09-25T03:42:43.047Z,13.27
2017-09-25T03:43:43.015Z,13.19
2017-09-25T03:44:42.989Z,13.30
2017-09-25T03:45:42.994Z,13.23
2017-09-25T03:46:42.955Z,13.20
2017-09-25T03:47:42.965Z,13.20
2017-09-25T03:48:42.930Z,13.19
2017-09-25T03:49:42.938Z,13.18
2017-09-25T03:50:42.906Z,13.19
2017-09-25T03:51:42.929Z,13.18
2017-09-25T03:52:42.850Z,13.20
2017-09-25T03:53:42.829Z,13.09
2017-09-25T03:54:42.830Z,13.12
2017-09-25T03:55:42.803Z,13.12
2017-09-25T03:56:42.820Z,13.09
2017-09-25T03:57:42.805Z,13.05
2017-09-25T03:58:42.773Z,13.04
2017-09-25T03:59:42.730Z,13.03
2017-09-25T04:00:42.704Z,13.01
2017-09-25T04:01:42.712Z,12.97
2017-09-25T04:02:42.673Z,13.08
2017-09-25T04:03:42.658Z,13.00
2017-09-25T04:04:42.644Z,12.87
2017-09-25T04:05:42.638Z,12.94
2017-09-25T04:06:42.636Z,13.00
2017-09-25T04:07:42.580Z,12.91
2017-09-25T04:08:42.566Z,12.86
2017-09-25T04:09:42.556Z,12.95
2017-09-25T04:10:42.539Z,12.93
2017-09-25T04:11:42.531Z,12.91
2017-09-25T04:12:42.502Z,12.94
2017-09-25T04:13:42.513Z,12.97
2017-09-25T04:14:42.472Z,12.95
2017-09-25T04:15:42.443Z,12.91
2017-09-25T04:16:42.470Z,13.04
2017-09-25T04:17:42.414Z,12.98
2017-09-25T04:18:42.398Z,13.03
2017-09-25T04:19:42.379Z,13.05
2017-09-25T04:20:42.356Z,13.01
2017-09-25T04:21:42.364Z,13.15
2017-09-25T04:22:42.317Z,13.08
2017-09-25T04:23:42.306Z,13.09
2017-09-25T04:24:42.306Z,13.12
2017-09-25T04:25:42.276Z,13.09
2017-09-25T04:26:42.250Z,13.05
2017-09-25T04:27:42.247Z,13.01
2017-09-25T04:28:42.283Z,13.09
2017-09-25T04:29:42.213Z,13.03
2017-09-25T04:30:42.193Z,13.11
2017-09-25T04:31:42.165Z,13.08
2017-09-25T04:32:42.148Z,13.03
2017-09-25T04:33:42.134Z,13.08
2017-09-25T04:34:42.122Z,13.04
2017-09-25T04:35:42.096Z,13.11
2017-09-25T04:36:42.096Z,13.03
2017-09-25T04:37:42.092Z,13.03
2017-09-25T04:38:42.040Z,13.09
2017-09-25T04:39:42.018Z,13.03
2017-09-25T04:40:42.048Z,13.03
2017-09-25T04:41:41.988Z,13.12
2017-09-25T04:42:41.965Z,13.12
2017-09-25T04:43:41.947Z,13.05
2017-09-25T04:44:41.971Z,13.09
2017-09-25T04:45:41.924Z,13.12
2017-09-25T04:46:41.909Z,13.09
2017-09-25T04:47:41.900Z,13.11
2017-09-25T04:48:41.911Z,13.16
2017-09-25T04:49:41.856Z,13.18
2017-09-25T04:50:41.834Z,13.19
2017-09-25T04:51:41.816Z,13.12
2017-09-25T04:52:41.811Z,13.19
2017-09-25T04:53:41.832Z,13.20
2017-09-25T04:54:41.769Z,13.18
2017-09-25T04:55:41.754Z,13.20
2017-09-25T04:56:41.777Z,13.18
2017-09-25T04:57:41.702Z,13.08
2017-09-25T04:58:41.689Z,13.19
2017-09-25T04:59:41.680Z,13.16
2017-09-25T05:00:41.700Z,13.19
2017-09-25T05:01:41.644Z,13.20
2017-09-25T05:02:41.629Z,13.20
2017-09-25T05:03:41.644Z,13.20
2017-09-25T05:04:41.584Z,13.20
2017-09-25T05:05:41.585Z,13.16
2017-09-25T05:06:41.550Z,13.20
2017-09-25T05:07:41.544Z,13.18
2017-09-25T05:08:41.528Z,13.20
2017-09-25T05:09:41.539Z,13.20
2017-09-25T05:10:41.473Z,13.20
2017-09-25T05:11:41.471Z,13.18
2017-09-25T05:12:41.447Z,13.19
2017-09-25T05:13:41.428Z,13.19
2017-09-25T05:14:41.426Z,13.23
2017-09-25T05:15:41.385Z,13.20
2017-09-25T05:16:41.396Z,13.20
2017-09-25T05:17:41.376Z,13.23
2017-09-25T05:18:41.326Z,13.23
2017-09-25T05:19:41.328Z,13.28
2017-09-25T05:20:41.312Z,13.20
2017-09-25T05:21:41.290Z,13.22
2017-09-25T05:22:41.289Z,13.19
2017-09-25T05:23:41.244Z,13.27
2017-09-25T05:24:41.226Z,13.19
2017-09-25T05:25:41.216Z,13.13
2017-09-25T05:26:41.191Z,13.20
2017-09-25T05:27:41.167Z,13.19
2017-09-25T05:28:41.196Z,13.19
2017-09-25T05:29:41.143Z,13.19
2017-09-25T05:30:41.138Z,13.18
2017-09-25T05:31:41.116Z,13.25
2017-09-25T05:32:41.745Z,13.20
2017-09-25T05:33:41.092Z,13.19
2017-09-25T05:34:41.083Z,13.20
2017-09-25T05:35:41.035Z,13.23
2017-09-25T05:36:41.032Z,13.25
2017-09-25T05:37:41.010Z,13.25
2017-09-25T05:38:40.994Z,13.20
2017-09-25T05:39:40.971Z,13.22
2017-09-25T05:40:40.945Z,13.19
2017-09-25T05:41:40.964Z,13.22
2017-09-25T05:42:40.937Z,13.27
2017-09-25T05:43:40.919Z,13.23
2017-09-25T05:44:40.892Z,13.30
2017-09-25T05:45:40.869Z,13.27
2017-09-25T05:46:40.847Z,13.28
2017-09-25T05:47:40.820Z,13.23
2017-09-25T05:48:40.820Z,13.31
2017-09-25T05:49:40.783Z,13.35
2017-09-25T05:50:40.803Z,13.33
2017-09-25T05:51:40.766Z,13.41
2017-09-25T05:52:40.766Z,13.44
2017-09-25T05:53:40.728Z,13.39
2017-09-25T05:54:40.695Z,13.41
2017-09-25T05:55:40.682Z,13.54
2017-09-25T05:56:40.674Z,13.50
2017-09-25T05:57:40.674Z,13.50
2017-09-25T05:58:40.663Z,13.59
2017-09-25T05:59:40.606Z,13.59
2017-09-25T06:00:40.609Z,13.57
2017-09-25T06:01:40.592Z,13.62
2017-09-25T06:02:40.570Z,13.67
2017-09-25T06:03:40.545Z,13.60
2017-09-25T06:04:40.571Z,13.74
2017-09-25T06:05:40.529Z,13.75
2017-09-25T06:06:41.380Z,13.78
2017-09-25T06:07:40.493Z,13.79
2017-09-25T06:08:40.451Z,13.89
2017-09-25T06:09:40.474Z,13.87
2017-09-25T06:10:40.421Z,13.89
2017-09-25T06:11:40.408Z,13.97
2017-09-25T06:12:40.391Z,13.95
2017-09-25T06:13:40.358Z,13.95
2017-09-25T06:14:40.341Z,14.03
2017-09-25T06:15:40.334Z,14.00
2017-09-25T06:16:40.322Z,14.07
2017-09-25T06:17:40.305Z,14.12
2017-09-25T06:18:40.295Z,13.93
2017-09-25T06:19:40.285Z,14.05
2017-09-25T06:20:40.250Z,14.15
2017-09-25T06:21:40.239Z,14.17
2017-09-25T06:22:40.238Z,14.17
2017-09-25T06:23:40.199Z,14.22
2017-09-25T06:24:40.179Z,14.17
2017-09-25T06:25:40.169Z,14.28
2017-09-25T06:26:40.146Z,14.32
2017-09-25T06:27:40.121Z,14.30
2017-09-25T06:28:40.128Z,14.29
2017-09-25T06:29:40.089Z,14.33
2017-09-25T06:30:40.086Z,14.40
2017-09-25T06:31:40.064Z,14.43
2017-09-25T06:32:40.036Z,14.47
2017-09-25T06:33:40.035Z,14.53
2017-09-25T06:34:40.000Z,14.45
2017-09-25T06:35:39.984Z,14.55
2017-09-25T06:36:39.988Z,14.60
2017-09-25T06:37:39.956Z,14.51
2017-09-25T06:38:39.940Z,14.55
2017-09-25T06:39:39.943Z,14.60
2017-09-25T06:40:39.905Z,14.60
2017-09-25T06:41:39.908Z,14.66
2017-09-25T06:42:39.880Z,14.66
2017-09-25T06:43:39.864Z,14.69
2017-09-25T06:44:39.869Z,14.63
2017-09-25T06:45:39.814Z,14.69
2017-09-25T06:46:39.798Z,14.72
2017-09-25T06:47:39.797Z,14.78
2017-09-25T06:48:39.794Z,14.86
2017-09-25T06:49:39.745Z,14.85
2017-09-25T06:50:39.761Z,14.79
2017-09-25T06:51:39.755Z,14.88
2017-09-25T06:52:39.716Z,14.94
2017-09-25T06:53:39.693Z,14.89
2017-09-25T06:54:39.669Z,14.99
2017-09-25T06:55:39.654Z,14.92
2017-09-25T06:56:39.749Z,15.02
2017-09-25T06:57:39.633Z,14.99
2017-09-25T06:58:39.600Z,15.06
2017-09-25T06:59:39.641Z,15.00
2017-09-25T07:00:39.567Z,15.03
2017-09-25T07:01:39.573Z,15.03
2017-09-25T07:02:39.536Z,15.10
2017-09-25T07:03:39.530Z,15.10
2017-09-25T07:04:39.504Z,15.15
2017-09-25T07:05:39.495Z,15.10
2017-09-25T07:06:39.475Z,15.19
2017-09-25T07:07:39.470Z,15.27
2017-09-25T07:08:39.430Z,15.25
2017-09-25T07:09:39.422Z,15.24
2017-09-25T07:10:39.439Z,15.31
2017-09-25T07:11:39.396Z,15.42
2017-09-25T07:12:39.406Z,15.43
2017-09-25T07:13:39.386Z,15.47
2017-09-25T07:14:39.351Z,15.47
2017-09-25T07:15:39.337Z,15.39
2017-09-25T07:16:39.314Z,15.43
2017-09-25T07:17:39.284Z,15.42
2017-09-25T07:18:39.273Z,15.51
2017-09-25T07:19:39.259Z,15.57
2017-09-25T07:20:39.237Z,15.54
2017-09-25T07:21:39.244Z,15.73
2017-09-25T07:22:39.239Z,15.76
2017-09-25T07:23:39.187Z,15.67
2017-09-25T07:24:39.173Z,15.73
2017-09-25T07:25:39.168Z,15.76
2017-09-25T07:26:39.186Z,15.79
2017-09-25T07:27:39.126Z,15.80
2017-09-25T07:28:39.120Z,15.79
2017-09-25T07:29:39.091Z,15.79
2017-09-25T07:30:39.072Z,15.80
2017-09-25T07:31:39.107Z,15.82
2017-09-25T07:32:39.053Z,15.91
2017-09-25T07:33:39.030Z,15.91
2017-09-25T07:34:39.005Z,16.10
2017-09-25T07:35:39.012Z,16.15
2017-09-25T07:36:39.026Z,16.21
2017-09-25T07:37:39.019Z,16.26
2017-09-25T07:38:38.950Z,16.31
2017-09-25T07:39:38.934Z,16.39
2017-09-25T07:40:38.908Z,16.36
2017-09-25T07:41:38.924Z,16.43
2017-09-25T07:42:38.889Z,16.39
2017-09-25T07:43:38.896Z,16.43
2017-09-25T07:44:38.855Z,16.60
2017-09-25T07:45:38.827Z,16.74
2017-09-25T07:46:38.823Z,16.84
2017-09-25T07:47:38.805Z,16.83
2017-09-25T07:48:38.798Z,16.96
2017-09-25T07:49:38.818Z,16.97
2017-09-25T07:50:38.756Z,17.02
2017-09-25T07:51:38.735Z,17.01
2017-09-25T07:52:38.726Z,17.15
2017-09-25T07:53:38.725Z,17.15
2017-09-25T07:54:38.697Z,17.19
2017-09-25T07:55:38.677Z,17.22
2017-09-25T07:56:38.737Z,17.12
2017-09-25T07:57:38.650Z,17.14
2017-09-25T07:58:38.629Z,17.14
2017-09-25T07:59:38.616Z,17.15
2017-09-25T08:00:38.598Z,17.22
2017-09-25T08:01:38.585Z,17.24
2017-09-25T08:02:38.576Z,17.24
2017-09-25T08:03:38.557Z,17.15
2017-09-25T08:04:38.553Z,17.20
2017-09-25T08:05:38.546Z,17.22
2017-09-25T08:06:38.514Z,17.16
2017-09-25T08:07:38.493Z,17.09
2017-09-25T08:08:38.513Z,17.11
2017-09-25T08:09:38.463Z,17.02
2017-09-25T08:10:38.462Z,17.02
2017-09-25T08:11:38.427Z,16.94
2017-09-25T08:12:38.429Z,16.91
2017-09-25T08:13:38.410Z,16.86
2017-09-25T08:14:38.422Z,16.79
2017-09-25T08:15:38.382Z,16.79
2017-09-25T08:16:38.359Z,16.81
2017-09-25T08:17:38.351Z,16.71
2017-09-25T08:18:38.375Z,16.71
2017-09-25T08:19:38.356Z,16.66
2017-09-25T08:20:38.295Z,16.64
2017-09-25T08:21:38.347Z,16.51
2017-09-25T08:22:38.346Z,16.53
2017-09-25T08:23:38.261Z,16.50
2017-09-25T08:24:38.242Z,16.54
2017-09-25T08:25:38.247Z,16.54
2017-09-25T08:26:38.224Z,16.65
2017-09-25T08:27:38.238Z,16.58
2017-09-25T08:28:38.188Z,16.60
2017-09-25T08:29:38.163Z,16.60
2017-09-25T08:30:38.156Z,16.64
2017-09-25T08:31:38.132Z,16.64
2017-09-25T08:32:38.120Z,16.69
2017-09-25T08:33:38.156Z,16.58
2017-09-25T08:34:38.089Z,16.58
2017-09-25T08:35:38.067Z,16.56
2017-09-25T08:36:38.056Z,16.58
2017-09-25T08:37:38.125Z,16.64
2017-09-25T08:38:38.012Z,16.66
2017-09-25T08:39:38.092Z,16.79
2017-09-25T08:40:37.998Z,16.91
2017-09-25T08:41:37.968Z,17.02
2017-09-25T08:42:38.043Z,17.16
2017-09-25T08:43:37.948Z,17.24
2017-09-25T08:44:37.979Z,17.36
2017-09-25T08:45:37.988Z,17.51
2017-09-25T08:46:37.905Z,17.78
2017-09-25T08:47:37.889Z,17.97
2017-09-25T08:48:37.904Z,18.31
2017-09-25T08:49:37.859Z,18.53
2017-09-25T08:50:37.890Z,18.84
2017-09-25T08:51:37.824Z,19.14
2017-09-25T08:52:37.846Z,19.21
2017-09-25T08:53:37.797Z,19.47
2017-09-25T08:54:37.798Z,19.48
2017-09-25T08:55:37.759Z,19.51
2017-09-25T08:56:37.777Z,19.58
2017-09-25T08:57:37.736Z,19.49
2017-09-25T08:58:37.738Z,19.39
2017-09-25T08:59:37.714Z,19.39
2017-09-25T09:00:37.700Z,19.31
2017-09-25T09:01:37.695Z,19.31
2017-09-25T09:02:37.664Z,19.29
2017-09-25T09:03:37.661Z,19.33
2017-09-25T09:04:37.651Z,19.26
2017-09-25T09:05:37.621Z,19.34
2017-09-25T09:06:37.620Z,19.27
2017-09-25T09:07:37.626Z,19.19
2017-09-25T09:08:37.578Z,19.12
2017-09-25T09:09:37.570Z,19.12
2017-09-25T09:10:37.551Z,19.12
2017-09-25T09:11:37.555Z,18.89
2017-09-25T09:12:37.533Z,18.93
2017-09-25T09:13:37.535Z,18.86
2017-09-25T09:14:37.505Z,18.89
2017-09-25T09:15:37.524Z,18.90
2017-09-25T09:16:37.471Z,18.81
2017-09-25T09:17:37.460Z,18.90
2017-09-25T09:18:37.455Z,18.93
2017-09-25T09:19:37.447Z,18.92
2017-09-25T09:20:37.414Z,18.81
2017-09-25T09:21:37.399Z,18.77
2017-09-25T09:22:37.402Z,18.81
2017-09-25T09:23:37.380Z,18.71
2017-09-25T09:24:37.375Z,18.83
2017-09-25T09:25:37.343Z,18.86
2017-09-25T09:26:37.342Z,18.93
2017-09-25T09:27:37.312Z,18.99
2017-09-25T09:28:37.335Z,19.21
2017-09-25T09:29:37.312Z,19.14
2017-09-25T09:30:37.284Z,19.15
2017-09-25T09:31:37.272Z,19.26
2017-09-25T09:32:37.249Z,19.37
2017-09-25T09:33:37.234Z,19.55
2017-09-25T09:34:37.230Z,19.64
2017-09-25T09:35:37.276Z,19.67
2017-09-25T09:36:37.215Z,19.67
2017-09-25T09:37:37.188Z,19.77
2017-09-25T09:38:37.171Z,19.81
2017-09-25T09:39:37.162Z,19.77
2017-09-25T09:40:37.152Z,19.74
2017-09-25T09:41:37.127Z,19.79
2017-09-25T09:42:37.109Z,19.82
2017-09-25T09:43:37.142Z,19.82
2017-09-25T09:44:37.102Z,19.89
2017-09-25T09:45:37.088Z,19.76
2017-09-25T09:46:37.070Z,19.79
2017-09-25T09:47:37.079Z,19.81
2017-09-25T09:48:37.043Z,19.85
2017-09-25T09:49:37.031Z,19.88
2017-09-25T09:50:37.013Z,19.79
2017-09-25T09:51:37.037Z,19.71
2017-09-25T09:52:37.017Z,19.67
2017-09-25T09:53:36.994Z,19.63
2017-09-25T09:54:36.966Z,19.59
2017-09-25T09:55:36.963Z,19.55
2017-09-25T09:56:36.936Z,19.48
2017-09-25T09:57:36.949Z,19.44
2017-09-25T09:58:36.921Z,19.33
2017-09-25T09:59:36.906Z,19.34
2017-09-25T10:00:36.898Z,19.33
2017-09-25T10:01:36.877Z,19.27
2017-09-25T10:02:36.864Z,19.15
2017-09-25T10:03:38.394Z,19.18
2017-09-25T10:04:36.835Z,18.93
2017-09-25T10:05:36.839Z,18.80
2017-09-25T10:06:36.798Z,18.66
2017-09-25T10:07:36.811Z,18.58
2017-09-25T10:08:36.809Z,18.53
2017-09-25T10:09:36.799Z,18.45
2017-09-25T10:10:36.771Z,18.29
2017-09-25T10:11:36.746Z,18.35
2017-09-25T10:12:36.720Z,18.35
2017-09-25T10:13:36.698Z,18.34
2017-09-25T10:14:36.729Z,18.31
2017-09-25T10:15:36.701Z,18.45
2017-09-25T10:16:36.680Z,18.45
2017-09-25T10:17:36.684Z,18.55
2017-09-25T10:18:36.671Z,18.53
2017-09-25T10:19:36.630Z,18.62
2017-09-25T10:20:36.629Z,18.65
2017-09-25T10:21:36.641Z,18.71
2017-09-25T10:22:36.596Z,18.74
2017-09-25T10:23:36.569Z,18.86
2017-09-25T10:24:36.570Z,18.92
2017-09-25T10:25:36.637Z,18.90
2017-09-25T10:26:36.550Z,19.04
2017-09-25T10:27:36.518Z,19.09
2017-09-25T10:28:36.502Z,19.07
2017-09-25T10:29:36.500Z,19.09
2017-09-25T10:30:36.485Z,19.18
2017-09-25T10:31:36.483Z,19.21
2017-09-25T10:32:36.447Z,19.16
2017-09-25T10:33:36.477Z,19.09
2017-09-25T10:34:36.448Z,19.08
2017-09-25T10:35:36.416Z,19.09
2017-09-25T10:36:36.407Z,19.11
2017-09-25T10:37:36.401Z,19.02
2017-09-25T10:38:36.362Z,19.09
2017-09-25T10:39:36.373Z,18.95
2017-09-25T10:40:36.346Z,18.88
2017-09-25T10:41:36.345Z,18.80
2017-09-25T10:42:36.323Z,18.77
2017-09-25T10:43:36.350Z,18.60
2017-09-25T10:44:36.292Z,18.68
2017-09-25T10:45:36.262Z,18.65
2017-09-25T10:46:36.278Z,18.62
2017-09-25T10:47:36.236Z,18.44
2017-09-25T10:48:36.224Z,18.35
2017-09-25T10:49:36.232Z,18.26
2017-09-25T10:50:36.226Z,18.18
2017-09-25T10:51:36.472Z,18.11
2017-09-25T10:52:36.181Z,18.10
2017-09-25T10:53:36.180Z,18.07
2017-09-25T10:54:36.183Z,18.10
2017-09-25T10:55:36.135Z,18.08
2017-09-25T10:56:36.180Z,18.01
2017-09-25T10:57:36.101Z,18.08
2017-09-25T10:58:36.115Z,18.05
2017-09-25T10:59:36.091Z,18.11
2017-09-25T11:00:36.080Z,18.04
2017-09-25T11:01:36.033Z,18.03
2017-09-25T11:02:36.017Z,17.97
2017-09-25T11:03:36.038Z,18.00
2017-09-25T11:04:35.996Z,17.98
2017-09-25T11:05:36.016Z,17.94
2017-09-25T11:06:35.976Z,17.92
2017-09-25T11:07:35.960Z,17.87
2017-09-25T11:08:35.946Z,18.01
2017-09-25T11:09:35.942Z,17.90
2017-09-25T11:10:35.922Z,17.95
2017-09-25T11:11:35.909Z,17.90
2017-09-25T11:12:35.884Z,17.95
2017-09-25T11:13:35.899Z,17.92
2017-09-25T11:14:35.876Z,17.90
2017-09-25T11:15:35.856Z,17.90
2017-09-25T11:16:35.826Z,17.87
2017-09-25T11:17:35.815Z,17.94
2017-09-25T11:18:35.811Z,17.89
2017-09-25T11:19:35.797Z,17.95
2017-09-25T11:20:35.779Z,17.98
2017-09-25T11:21:35.827Z,17.98
2017-09-25T11:22:35.754Z,18.10
2017-09-25T11:23:35.734Z,18.11
2017-09-25T11:24:35.711Z,18.11
2017-09-25T11:25:35.701Z,18.20
2017-09-25T11:26:35.674Z,18.20
2017-09-25T11:27:35.694Z,18.26
2017-09-25T11:28:35.653Z,18.25
2017-09-25T11:29:35.669Z,18.33
2017-09-25T11:30:35.637Z,18.35
2017-09-25T11:31:35.610Z,18.38
2017-09-25T11:32:35.616Z,18.47
2017-09-25T11:33:35.594Z,18.53
2017-09-25T11:34:35.609Z,18.53
2017-09-25T11:35:35.569Z,18.73
2017-09-25T11:36:35.553Z,18.95
2017-09-25T11:37:35.529Z,19.07
2017-09-25T11:38:35.536Z,19.09
2017-09-25T11:39:35.501Z,19.16
2017-09-25T11:40:35.485Z,19.36
2017-09-25T11:41:35.517Z,19.49
2017-09-25T11:42:35.485Z,19.54
2017-09-25T11:43:35.435Z,19.59
2017-09-25T11:44:35.446Z,19.63
2017-09-25T11:45:35.775Z,19.73
2017-09-25T11:46:35.438Z,19.77
2017-09-25T11:47:35.395Z,19.71
2017-09-25T11:48:35.412Z,19.63
2017-09-25T11:49:35.863Z,19.63
2017-09-25T11:50:35.347Z,19.73
2017-09-25T11:51:35.381Z,19.69
2017-09-25T11:52:35.358Z,19.59
2017-09-25T11:53:35.325Z,19.64
2017-09-25T11:54:35.312Z,19.66
2017-09-25T11:55:35.318Z,19.67
2017-09-25T11:56:35.257Z,19.71
2017-09-25T11:57:35.489Z,19.64
2017-09-25T11:58:36.475Z,19.74
2017-09-25T11:59:35.258Z,19.69
2017-09-25T12:00:35.224Z,19.67
2017-09-25T12:01:35.219Z,19.70
2017-09-25T12:02:35.195Z,19.71
2017-09-25T12:03:35.195Z,19.76
2017-09-25T12:04:35.224Z,19.81
2017-09-25T12:05:35.159Z,19.77
2017-09-25T12:06:35.137Z,19.81
2017-09-25T12:07:35.127Z,19.91
2017-09-25T12:08:35.117Z,19.85
2017-09-25T12:09:35.116Z,19.92
2017-09-25T12:10:35.073Z,19.89
2017-09-25T12:11:35.075Z,19.76
2017-09-25T12:12:35.050Z,19.62
2017-09-25T12:13:35.090Z,19.66
2017-09-25T12:14:35.025Z,19.63
2017-09-25T12:15:35.001Z,19.51
2017-09-25T12:16:34.990Z,19.54
2017-09-25T12:17:34.994Z,19.41
2017-09-25T12:18:35.009Z,19.48
2017-09-25T12:19:35.867Z,19.52
2017-09-25T12:20:34.947Z,19.49
2017-09-25T12:21:35.008Z,19.51
2017-09-25T12:22:34.916Z,19.45
2017-09-25T12:23:34.921Z,19.52
2017-09-25T12:24:34.884Z,19.52
2017-09-25T12:25:34.896Z,19.49
2017-09-25T12:26:34.852Z,19.45
2017-09-25T12:27:34.894Z,19.37
2017-09-25T12:28:34.840Z,19.27
2017-09-25T12:29:34.818Z,19.26
2017-09-25T12:30:34.809Z,19.18
2017-09-25T12:31:34.787Z,19.16
2017-09-25T12:32:34.781Z,19.18
2017-09-25T12:33:34.771Z,19.16
2017-09-25T12:34:34.748Z,19.14
2017-09-25T12:35:34.764Z,19.15
2017-09-25T12:36:34.712Z,19.21
2017-09-25T12:37:34.718Z,19.15
2017-09-25T12:38:34.711Z,19.24
2017-09-25T12:39:35.382Z,19.34
2017-09-25T12:40:34.679Z,19.19
2017-09-25T12:41:34.650Z,19.27
2017-09-25T12:42:34.653Z,19.15
2017-09-25T12:43:34.636Z,19.18
2017-09-25T12:44:34.803Z,19.27
2017-09-25T12:45:34.604Z,19.31
2017-09-25T12:46:34.614Z,19.36
2017-09-25T12:47:34.574Z,19.33
2017-09-25T12:48:34.569Z,19.37
2017-09-25T12:49:34.553Z,19.48
2017-09-25T12:50:34.616Z,19.66
2017-09-25T12:51:34.520Z,19.69
2017-09-25T12:52:34.512Z,19.69